Time;durP1;ratioP1;P1;durP2;ratioP2;P2;SDS_P1;SDS_P2;PMS_P1;PMS_P2;Temp;Humidity;BMP_temperature;BMP_pressure;BME280_temperature;BME280_humidity;BME280_pressure;Samples;Min_cycle;Max_cycle;Signal;HPM_P1;HPM_P2
2024/01/17 00:02:09;;;;;;;;;;;;;;;0.72;59.35;98649.03;4430738;32;34168;-92
2024/01/17 00:04:37;;;;;;;;;;;;;;;0.94;58.79;98651.66;4436109;32;34498;-92
2024/01/17 00:07:05;;;;;;;;;;;;;;;0.99;58.54;98635.69;4422546;32;33603;-93
2024/01/17 00:09:33;;;;;;;;;;;;;;;0.86;58.82;98637.69;4436601;32;34462;-92
2024/01/17 00:12:04;;;;;;;;;;;;;;;0.96;58.29;98637.28;4436273;32;33559;-90
2024/01/17 00:14:32;;;;;;;;;;;;;;;1.14;57.56;98638.88;4435164;32;35226;-89
2024/01/17 00:16:59;;;;;;;;;;;;;;;0.96;57.92;98634.72;4435390;32;34422;-90
2024/01/17 00:19:29;;;;;;;;;;;;;;;1.04;57.72;98631.63;4436034;32;33627;-90
2024/01/17 00:21:57;;;;;;;;;;;;;;;1.06;57.74;98630.91;4435907;32;33794;-90
2024/01/17 00:24:25;;;;;;;;;;;;;;;1.18;57.54;98638.19;4434500;32;34147;-91
2024/01/17 00:26:52;;;;;;;;;;;;;;;1.06;57.89;98635.09;4435311;32;34148;-92
2024/01/17 00:29:20;;;;;;;;;;;;;;;1.16;57.28;98624.47;4435793;32;33357;-90
2024/01/17 00:31:47;;;;;;;;;;;;;;;1.11;57.15;98636.19;4435077;32;33595;-88
2024/01/17 00:34:15;;;;;;;;;;;;;;;1.12;57.06;98630.25;4432428;32;33983;-90
2024/01/17 00:36:42;;;;;;;;;;;;;;;1.14;56.77;98632.06;4420474;32;33865;-91
2024/01/17 00:39:09;;;;;;;;;;;;;;;1.13;56.75;98626.88;4419311;32;33978;-91
2024/01/17 00:41:37;;;;;;;;;;;;;;;0.97;57.24;98622.84;4433670;32;33399;-89
2024/01/17 00:44:06;;;;;;;;;;;;;;;1.03;57.25;98625.66;4434704;32;35049;-90
2024/01/17 00:46:33;;;;;;;;;;;;;;;0.95;57.54;98616.81;4431313;32;35051;-90
2024/01/17 00:49:01;;;;;;;;;;;;;;;0.82;57.84;98615.41;4418944;32;33503;-90
2024/01/17 00:51:28;;;;;;;;;;;;;;;0.96;57.55;98616.88;4420055;32;33981;-91
2024/01/17 00:53:56;;;;;;;;;;;;;;;0.95;57.35;98612.56;4406349;32;33509;-91
2024/01/17 00:56:23;;;;;;;;;;;;;;;1.03;56.97;98622.25;4419798;32;34455;-93
2024/01/17 00:58:52;;;;;;;;;;;;;;;0.85;57.22;98615.53;4421371;32;32634;-91
2024/01/17 01:01:19;;;;;;;;;;;;;;;0.64;57.91;98620.59;4432266;32;33055;-94
2024/01/17 01:03:47;;;;;;;;;;;;;;;0.61;58.17;98624.72;4407978;32;34643;-94
2024/01/17 01:06:15;;;;;;;;;;;;;;;0.51;58.25;98623.44;4432251;32;33810;-90
2024/01/17 01:08:42;;;;;;;;;;;;;;;0.23;59.35;98618.81;4436285;32;32585;-89
2024/01/17 01:11:10;;;;;;;;;;;;;;;0.59;58.66;98609.34;4437805;32;34173;-94
2024/01/17 01:13:37;;;;;;;;;;;;;;;0.29;59.25;98619.06;4423771;32;34289;-93
2024/01/17 01:16:04;;;;;;;;;;;;;;;0.14;59.76;98613.28;4436122;32;34011;-93
2024/01/17 01:18:32;;;;;;;;;;;;;;;0.54;58.90;98618.47;4437489;32;33592;-89
2024/01/17 01:20:59;;;;;;;;;;;;;;;0.41;58.94;98617.06;4411218;32;32757;-92
2024/01/17 01:23:27;;;;;;;;;;;;;;;0.75;57.96;98612.53;4421044;32;33480;-93
2024/01/17 01:25:55;;;;;;;;;;;;;;;0.78;57.73;98618.62;4410565;32;33155;-92
2024/01/17 01:28:22;;;;;;;;;;;;;;;0.68;57.88;98611.41;4399333;32;32765;-95
2024/01/17 01:30:50;;;;;;;;;;;;;;;0.73;57.71;98607.38;4411508;32;34088;-94
2024/01/17 01:33:17;;;;;;;;;;;;;;;0.68;57.74;98601.19;4411647;32;34409;-92
2024/01/17 01:36:01;;;;;;;;;;;;;;;0.80;57.28;98595.75;4398021;32;34250;-92
2024/01/17 01:38:29;;;;;;;;;;;;;;;0.86;56.94;98589.22;4408975;32;33558;-92
2024/01/17 01:40:58;;;;;;;;;;;;;;;0.91;56.88;98585.19;4396054;32;33683;-91
2024/01/17 01:43:26;;;;;;;;;;;;;;;0.80;56.93;98588.97;4422244;32;34649;-91
2024/01/17 01:46:09;;;;;;;;;;;;;;;0.83;56.99;98583.97;4393244;32;33842;-90
2024/01/17 01:48:37;;;;;;;;;;;;;;;0.87;56.72;98575.66;4411588;32;34205;-89
2024/01/17 01:51:05;;;;;;;;;;;;;;;0.73;56.69;98569.13;4395673;32;33221;-93
2024/01/17 01:53:32;;;;;;;;;;;;;;;0.53;57.39;98560.63;4409686;32;34113;-91
2024/01/17 01:56:12;;;;;;;;;;;;;;;0.39;57.80;98557.47;4400523;32;34451;-95
2024/01/17 01:58:40;;;;;;;;;;;;;;;0.34;57.85;98550.44;4408850;32;34284;-94
2024/01/17 02:01:07;;;;;;;;;;;;;;;0.47;57.79;98551.03;4422484;32;34805;-89
2024/01/17 02:03:35;;;;;;;;;;;;;;;-0.30;60.32;98551.03;4407579;32;34356;-93
2024/01/17 02:06:03;;;;;;;;;;;;;;;-0.17;60.38;98545.66;4394004;32;34302;-92
2024/01/17 02:08:30;;;;;;;;;;;;;;;0.27;59.38;98534.00;4408053;32;33427;-92
2024/01/17 02:10:58;;;;;;;;;;;;;;;0.03;60.14;98535.47;4408371;32;34904;-92
2024/01/17 02:13:26;;;;;;;;;;;;;;;0.13;59.61;98530.00;4408088;32;34261;-91
2024/01/17 02:15:53;;;;;;;;;;;;;;;0.44;58.86;98540.69;4406839;32;35043;-92
2024/01/17 02:18:21;;;;;;;;;;;;;;;0.62;58.41;98532.06;4407518;32;34075;-94
2024/01/17 02:20:49;;;;;;;;;;;;;;;0.09;59.65;98538.31;4408210;32;34624;-92
2024/01/17 02:23:25;;;;;;;;;;;;;;;0.38;59.09;98531.91;4422159;32;34054;-91
2024/01/17 02:25:54;;;;;;;;;;;;;;;0.59;58.19;98524.28;4407789;32;33833;-93
2024/01/17 02:28:28;;;;;;;;;;;;;;;0.67;57.85;98521.25;4396033;32;34341;-92
2024/01/17 02:30:56;;;;;;;;;;;;;;;0.89;56.91;98522.13;4401617;32;33063;-93
2024/01/17 02:33:23;;;;;;;;;;;;;;;0.79;57.01;98518.31;4392846;32;34600;-92
2024/01/17 02:35:51;;;;;;;;;;;;;;;0.65;57.09;98515.22;4410150;32;35022;-94
2024/01/17 02:38:22;;;;;;;;;;;;;;;0.31;58.12;98507.84;4422169;32;33631;-93
2024/01/17 02:40:50;;;;;;;;;;;;;;;0.17;58.88;98511.47;4394977;32;33076;-92
2024/01/17 02:43:17;;;;;;;;;;;;;;;0.32;58.63;98509.56;4408113;32;32930;-92
2024/01/17 02:45:45;;;;;;;;;;;;;;;0.33;58.78;98521.50;4411736;32;33829;-94
2024/01/17 02:48:13;;;;;;;;;;;;;;;0.14;59.50;98517.31;4420843;32;33741;-95
2024/01/17 02:50:40;;;;;;;;;;;;;;;0.51;58.52;98520.56;4408172;32;34181;-92
2024/01/17 02:53:08;;;;;;;;;;;;;;;0.38;58.56;98516.59;4421791;32;35181;-88
2024/01/17 02:55:35;;;;;;;;;;;;;;;0.50;58.17;98511.19;4422020;32;34512;-95
2024/01/17 02:58:02;;;;;;;;;;;;;;;0.59;57.79;98509.00;4423253;32;33576;-95
2024/01/17 03:00:30;;;;;;;;;;;;;;;0.71;57.62;98514.59;4422166;32;34138;-95
2024/01/17 03:02:57;;;;;;;;;;;;;;;0.66;57.55;98511.84;4423344;32;34759;-92
2024/01/17 03:05:25;;;;;;;;;;;;;;;0.60;57.62;98514.13;4421950;32;34178;-94
2024/01/17 03:07:52;;;;;;;;;;;;;;;0.57;57.44;98520.78;4422134;32;32497;-91
2024/01/17 03:10:19;;;;;;;;;;;;;;;0.75;56.98;98511.34;4422815;32;34196;-95
2024/01/17 03:12:47;;;;;;;;;;;;;;;0.63;57.13;98513.41;4423360;32;35422;-94
2024/01/17 03:15:15;;;;;;;;;;;;;;;0.71;57.09;98509.47;4421853;32;33986;-94
2024/01/17 03:17:42;;;;;;;;;;;;;;;0.88;56.59;98518.72;4408351;32;32684;-96
2024/01/17 03:20:10;;;;;;;;;;;;;;;0.81;56.54;98511.59;4407248;32;32679;-95
2024/01/17 03:22:42;;;;;;;;;;;;;;;0.67;56.94;98508.47;4421597;32;34265;-93
2024/01/17 03:25:10;;;;;;;;;;;;;;;0.72;56.83;98498.50;4422538;32;34376;-93
2024/01/17 03:27:37;;;;;;;;;;;;;;;0.86;56.46;98496.47;4420420;32;32923;-89
2024/01/17 03:30:06;;;;;;;;;;;;;;;0.81;56.33;98487.78;4420258;32;34948;-93
2024/01/17 03:32:34;;;;;;;;;;;;;;;0.70;56.18;98477.13;4419585;32;33620;-92
2024/01/17 03:35:02;;;;;;;;;;;;;;;0.99;55.46;98483.41;4420139;32;35043;-93
2024/01/17 03:37:30;;;;;;;;;;;;;;;0.85;55.76;98482.84;4420067;32;33956;-90
2024/01/17 03:39:57;;;;;;;;;;;;;;;0.72;55.93;98472.97;4407058;32;33038;-93
2024/01/17 03:42:24;;;;;;;;;;;;;;;0.60;56.16;98468.22;4419511;32;34335;-91
2024/01/17 03:44:52;;;;;;;;;;;;;;;0.47;56.72;98460.91;4408743;32;33426;-92
2024/01/17 03:47:19;;;;;;;;;;;;;;;0.48;56.63;98455.84;4409248;32;33328;-92
2024/01/17 03:50:08;;;;;;;;;;;;;;;0.43;56.75;98444.59;4436847;32;34954;-91
2024/01/17 03:52:36;;;;;;;;;;;;;;;0.51;56.81;98444.03;4422300;32;33574;-92
2024/01/17 03:55:05;;;;;;;;;;;;;;;0.39;57.10;98449.53;4435057;32;33768;-92
2024/01/17 03:57:34;;;;;;;;;;;;;;;0.33;57.58;98450.12;4409095;32;32893;-91
2024/01/17 04:00:03;;;;;;;;;;;;;;;0.37;57.56;98452.00;4422785;32;34941;-93
2024/01/17 04:02:31;;;;;;;;;;;;;;;0.10;58.41;98454.25;4409529;32;33024;-91
2024/01/17 04:04:59;;;;;;;;;;;;;;;0.30;57.94;98444.88;4435112;32;33819;-92
2024/01/17 04:07:26;;;;;;;;;;;;;;;0.26;57.94;98437.94;4432541;32;34818;-90
2024/01/17 04:09:54;;;;;;;;;;;;;;;0.37;57.67;98444.34;4412046;32;34529;-92
2024/01/17 04:12:22;;;;;;;;;;;;;;;0.34;57.71;98449.34;4419521;32;34071;-91
2024/01/17 04:14:49;;;;;;;;;;;;;;;0.44;57.32;98437.81;4419635;32;34303;-91
2024/01/17 04:17:16;;;;;;;;;;;;;;;0.25;57.85;98431.09;4394130;32;33537;-92
2024/01/17 04:19:44;;;;;;;;;;;;;;;0.12;58.22;98431.41;4416956;32;33076;-89
2024/01/17 04:22:11;;;;;;;;;;;;;;;0.41;57.78;98427.50;4421788;32;33238;-92
2024/01/17 04:24:38;;;;;;;;;;;;;;;0.13;58.17;98420.41;4408889;32;33678;-92
2024/01/17 04:27:07;;;;;;;;;;;;;;;0.09;58.66;98408.34;4406511;32;32738;-92
2024/01/17 04:29:34;;;;;;;;;;;;;;;0.19;58.70;98400.25;4415909;32;33224;-89
2024/01/17 04:32:02;;;;;;;;;;;;;;;0.30;58.06;98386.25;4421585;32;35072;-91
2024/01/17 04:34:29;;;;;;;;;;;;;;;0.43;57.87;98392.75;4421090;32;33186;-90
2024/01/17 04:36:57;;;;;;;;;;;;;;;0.55;57.55;98394.91;4422035;32;33575;-89
2024/01/17 04:39:25;;;;;;;;;;;;;;;0.55;57.36;98390.66;4435698;32;34948;-89
2024/01/17 04:41:52;;;;;;;;;;;;;;;0.51;57.37;98393.91;4423056;32;33799;-90
2024/01/17 04:44:19;;;;;;;;;;;;;;;0.59;57.09;98386.56;4411179;32;33326;-90
2024/01/17 04:46:47;;;;;;;;;;;;;;;0.67;56.91;98390.28;4424266;32;34062;-91
2024/01/17 04:49:14;;;;;;;;;;;;;;;0.54;56.97;98398.28;4437341;32;33646;-90
2024/01/17 04:51:43;;;;;;;;;;;;;;;0.45;57.35;98393.66;4437422;32;35155;-91
2024/01/17 04:54:11;;;;;;;;;;;;;;;0.57;56.97;98394.16;4423669;32;34089;-90
2024/01/17 04:56:38;;;;;;;;;;;;;;;0.40;57.06;98393.47;4423175;32;34058;-92
2024/01/17 04:59:05;;;;;;;;;;;;;;;0.45;57.04;98404.72;4437769;32;35168;-91
2024/01/17 05:01:33;;;;;;;;;;;;;;;0.41;57.08;98392.66;4423043;32;34606;-92
2024/01/17 05:04:00;;;;;;;;;;;;;;;0.26;57.62;98394.59;4433722;32;34245;-91
2024/01/17 05:06:27;;;;;;;;;;;;;;;0.40;57.47;98390.94;4429062;32;33053;-91
2024/01/17 05:08:57;;;;;;;;;;;;;;;0.03;58.25;98392.78;4437602;32;34148;-92
2024/01/17 05:11:25;;;;;;;;;;;;;;;0.16;58.28;98384.84;4436435;32;34187;-92
2024/01/17 05:13:52;;;;;;;;;;;;;;;0.19;58.54;98384.94;4417308;32;33412;-89
2024/01/17 05:16:20;;;;;;;;;;;;;;;0.28;58.32;98382.78;4429348;32;33253;-94
2024/01/17 05:18:47;;;;;;;;;;;;;;;0.25;58.39;98380.13;4438558;32;33667;-90
2024/01/17 05:21:35;;;;;;;;;;;;;;;0.33;58.33;98378.75;4438208;32;35038;-92
2024/01/17 05:24:02;;;;;;;;;;;;;;;0.24;58.82;98371.59;4431045;32;34066;-95
2024/01/17 05:26:29;;;;;;;;;;;;;;;0.33;58.55;98376.19;4430324;32;33156;-91
2024/01/17 05:28:57;;;;;;;;;;;;;;;0.40;58.62;98380.72;4436991;32;33662;-92
2024/01/17 05:31:24;;;;;;;;;;;;;;;0.49;58.43;98377.66;4434654;32;33645;-92
2024/01/17 05:34:12;;;;;;;;;;;;;;;0.34;58.66;98377.94;4422441;32;33730;-92
2024/01/17 05:36:55;;;;;;;;;;;;;;;0.44;58.43;98386.81;4432675;32;34006;-88
2024/01/17 05:39:23;;;;;;;;;;;;;;;-0.05;59.64;98388.22;4411492;32;34622;-91
2024/01/17 05:41:50;;;;;;;;;;;;;;;0.26;58.89;98388.62;4435887;32;33319;-92
2024/01/17 05:44:18;;;;;;;;;;;;;;;0.23;58.93;98366.44;4437347;32;34128;-91
2024/01/17 05:46:45;;;;;;;;;;;;;;;0.28;59.09;98370.03;4411853;32;784137;-91
2024/01/17 05:49:13;;;;;;;;;;;;;;;0.40;58.78;98360.34;4435316;32;34926;-91
2024/01/17 05:51:40;;;;;;;;;;;;;;;0.45;58.68;98369.03;4413664;32;34561;-92
2024/01/17 05:54:08;;;;;;;;;;;;;;;0.31;58.96;98371.84;4408009;32;33591;-88
2024/01/17 05:56:37;;;;;;;;;;;;;;;0.29;59.29;98379.44;4430978;32;33312;-90
2024/01/17 05:59:05;;;;;;;;;;;;;;;0.54;59.18;98377.87;4423664;32;33083;-90
2024/01/17 06:01:34;;;;;;;;;;;;;;;0.57;59.14;98370.31;4436138;32;34235;-87
2024/01/17 06:04:02;;;;;;;;;;;;;;;0.31;59.80;98359.97;4433463;32;33499;-89
2024/01/17 06:06:29;;;;;;;;;;;;;;;-0.28;62.03;98360.94;4434615;32;33047;-91
2024/01/17 06:08:57;;;;;;;;;;;;;;;-0.08;61.71;98360.06;4423848;32;34140;-93
2024/01/17 06:11:25;;;;;;;;;;;;;;;-0.05;61.63;98359.34;4408792;32;34705;-92
2024/01/17 06:13:53;;;;;;;;;;;;;;;0.30;61.07;98363.31;4435437;32;33013;-91
2024/01/17 06:16:20;;;;;;;;;;;;;;;0.39;60.95;98361.16;4436498;32;34235;-90
2024/01/17 06:18:54;;;;;;;;;;;;;;;0.52;60.69;98344.63;4422984;32;33045;-90
2024/01/17 06:21:22;;;;;;;;;;;;;;;0.17;61.07;98338.16;4423851;32;34164;-89
2024/01/17 06:23:51;;;;;;;;;;;;;;;0.33;61.34;98343.03;4410798;32;33891;-93
2024/01/17 06:26:19;;;;;;;;;;;;;;;0.40;60.82;98347.59;4411115;32;34256;-94
2024/01/17 06:28:46;;;;;;;;;;;;;;;0.11;61.71;98356.59;4436347;32;33537;-93
2024/01/17 06:31:22;;;;;;;;;;;;;;;0.20;61.39;98358.69;4423376;32;33931;-94
2024/01/17 06:33:50;;;;;;;;;;;;;;;-0.76;64.53;98358.00;4423579;32;34468;-90
2024/01/17 06:36:18;;;;;;;;;;;;;;;-0.77;65.02;98354.59;4437265;32;33679;-89
2024/01/17 06:38:45;;;;;;;;;;;;;;;-0.91;65.65;98350.59;4423463;32;34078;-90
2024/01/17 06:41:13;;;;;;;;;;;;;;;-1.11;66.36;98359.84;4410786;32;33340;-94
2024/01/17 06:43:40;;;;;;;;;;;;;;;-0.91;66.21;98367.50;4410336;32;33936;-94
2024/01/17 06:46:24;;;;;;;;;;;;;;;-1.00;66.44;98376.47;4437107;32;33745;-89
2024/01/17 06:48:51;;;;;;;;;;;;;;;-1.08;66.95;98382.03;4423021;32;34916;-90
2024/01/17 06:51:19;;;;;;;;;;;;;;;-1.07;67.12;98371.91;4436967;32;35752;-93
2024/01/17 06:53:55;;;;;;;;;;;;;;;-1.31;67.65;98364.03;4398880;32;33225;-89
2024/01/17 06:56:22;;;;;;;;;;;;;;;-1.13;67.33;98364.00;4437031;32;34000;-90
2024/01/17 06:58:49;;;;;;;;;;;;;;;-0.59;66.03;98348.56;4423204;32;34191;-89
2024/01/17 07:01:17;;;;;;;;;;;;;;;-0.45;65.27;98346.63;4421320;32;34833;-92
2024/01/17 07:04:04;;;;;;;;;;;;;;;-0.52;65.61;98348.03;4424680;32;34172;-94
2024/01/17 07:06:32;;;;;;;;;;;;;;;-1.18;67.22;98349.31;4436988;32;32682;-89
2024/01/17 07:09:02;;;;;;;;;;;;;;;-0.85;66.76;98344.88;4410716;32;33749;-91
2024/01/17 07:11:29;;;;;;;;;;;;;;;-1.24;67.88;98343.16;4409409;32;35016;-93
2024/01/17 07:14:13;;;;;;;;;;;;;;;-0.95;67.47;98343.59;4424838;32;34063;-93
2024/01/17 07:16:40;;;;;;;;;;;;;;;-1.03;67.67;98339.84;4397457;32;32053;-89
2024/01/17 07:19:08;;;;;;;;;;;;;;;-1.20;67.82;98330.59;4435567;32;34050;-90
2024/01/17 07:21:42;;;;;;;;;;;;;;;-0.95;67.42;98317.28;4422910;32;33696;-93
2024/01/17 07:24:29;;;;;;;;;;;;;;;-1.18;68.01;98322.22;4402094;32;33581;-90
2024/01/17 07:26:58;;;;;;;;;;;;;;;-1.12;67.58;98332.69;4422965;32;32746;-92
2024/01/17 07:29:25;;;;;;;;;;;;;;;-1.13;68.14;98333.50;4409842;32;33843;-89
2024/01/17 07:32:20;;;;;;;;;;;;;;;-1.30;68.75;98326.75;4435019;32;33397;-92
2024/01/17 07:34:47;;;;;;;;;;;;;;;-1.38;69.08;98320.44;4410278;32;34269;-92
2024/01/17 07:37:15;;;;;;;;;;;;;;;-1.29;68.88;98321.75;4422828;32;34289;-89
2024/01/17 07:39:45;;;;;;;;;;;;;;;-1.06;68.19;98320.25;4423012;32;34585;-92
2024/01/17 07:42:13;;;;;;;;;;;;;;;-0.81;67.24;98318.75;4422808;32;34374;-93
2024/01/17 07:44:41;;;;;;;;;;;;;;;-1.04;68.20;98316.09;4409955;32;33256;-93
2024/01/17 07:47:27;;;;;;;;;;;;;;;-1.10;68.12;98308.19;4412052;32;32226;-92
2024/01/17 07:49:59;;;;;;;;;;;;;;;-1.06;68.17;98309.16;4422711;32;34920;-89
2024/01/17 07:52:26;;;;;;;;;;;;;;;-1.05;68.29;98309.25;4410246;32;33227;-93
2024/01/17 07:54:53;;;;;;;;;;;;;;;-1.00;68.02;98305.22;4436733;32;34475;-90
2024/01/17 07:57:41;;;;;;;;;;;;;;;-0.78;67.46;98301.09;4401441;32;32884;-93
2024/01/17 08:00:08;;;;;;;;;;;;;;;-0.48;66.42;98300.66;4397327;32;34010;-91
2024/01/17 08:02:39;;;;;;;;;;;;;;;-0.80;66.91;98310.31;4410525;32;34086;-90
2024/01/17 08:05:26;;;;;;;;;;;;;;;-0.68;66.93;98309.97;4425137;32;35195;-91
2024/01/17 08:07:53;;;;;;;;;;;;;;;-0.61;66.59;98310.31;4410268;32;33812;-89
2024/01/17 08:11:02;;;;;;;;;;;;;;;-0.84;67.32;98311.00;4422415;32;33931;-90
2024/01/17 08:13:29;;;;;;;;;;;;;;;-0.87;67.37;98310.84;4397051;32;34006;-91
2024/01/17 08:15:57;;;;;;;;;;;;;;;-0.61;67.03;98304.34;4408723;32;34724;-90
2024/01/17 08:18:24;;;;;;;;;;;;;;;-0.17;65.67;98297.69;4422483;32;33065;-93
2024/01/17 08:20:52;;;;;;;;;;;;;;;-0.34;65.96;98307.19;4409344;32;33931;-93
2024/01/17 08:23:39;;;;;;;;;;;;;;;-0.31;65.73;98304.75;4424575;32;34785;-90
2024/01/17 08:26:07;;;;;;;;;;;;;;;-0.61;66.76;98302.66;4434697;32;34515;-90
2024/01/17 08:28:55;;;;;;;;;;;;;;;-0.27;66.34;98301.53;4434580;32;32878;-89
2024/01/17 08:31:22;;;;;;;;;;;;;;;-0.32;66.07;98303.91;4396634;32;32730;-94
2024/01/17 08:34:11;;;;;;;;;;;;;;;-0.83;67.66;98305.12;4435076;32;34277;-93
2024/01/17 08:37:00;;;;;;;;;;;;;;;-0.58;67.01;98294.28;4411673;32;33181;-92
2024/01/17 08:39:28;;;;;;;;;;;;;;;-0.36;66.46;98299.50;4409533;32;33608;-93
2024/01/17 08:41:55;;;;;;;;;;;;;;;-0.48;67.10;98293.03;4409443;32;34536;-91
2024/01/17 08:44:24;;;;;;;;;;;;;;;-0.10;65.99;98289.50;4409182;32;33096;-90
2024/01/17 08:46:53;;;;;;;;;;;;;;;0.05;65.72;98289.25;4422036;32;34240;-93
2024/01/17 08:49:21;;;;;;;;;;;;;;;0.16;65.76;98288.00;4436110;32;33995;-91
2024/01/17 08:51:49;;;;;;;;;;;;;;;0.11;65.75;98292.03;4396777;32;33292;-93
2024/01/17 08:54:17;;;;;;;;;;;;;;;-0.10;66.64;98276.75;4422235;32;35096;-93
2024/01/17 08:57:04;;;;;;;;;;;;;;;-0.42;67.64;98280.53;4435598;32;34333;-94
2024/01/17 08:59:52;;;;;;;;;;;;;;;-0.81;69.24;98280.59;4400563;32;33088;-93
2024/01/17 09:02:39;;;;;;;;;;;;;;;-0.94;70.23;98276.66;4424122;32;34490;-93
2024/01/17 09:05:18;;;;;;;;;;;;;;;-1.02;70.28;98268.69;4398460;32;33199;-91
2024/01/17 09:07:46;;;;;;;;;;;;;;;-0.85;70.54;98266.88;4409265;32;33606;-93
2024/01/17 09:10:31;;;;;;;;;;;;;;;-0.80;70.73;98267.91;4435824;32;34359;-93
2024/01/17 09:12:58;;;;;;;;;;;;;;;-0.96;71.84;98257.03;4409050;32;33849;-92
2024/01/17 09:15:25;;;;;;;;;;;;;;;-0.96;72.17;98249.41;4408847;32;33432;-91
2024/01/17 09:18:18;;;;;;;;;;;;;;;-1.00;72.39;98254.34;4410849;32;33153;-92
2024/01/17 09:20:45;;;;;;;;;;;;;;;-0.60;71.33;98250.97;4421338;32;33384;-92
2024/01/17 09:23:13;;;;;;;;;;;;;;;-0.77;71.54;98241.75;4395719;32;33075;-92
2024/01/17 09:25:40;;;;;;;;;;;;;;;-0.88;72.72;98236.19;4408793;32;35117;-92
2024/01/17 09:28:12;;;;;;;;;;;;;;;-0.95;73.43;98226.56;4410624;32;34459;-93
2024/01/17 09:30:47;;;;;;;;;;;;;;;-1.10;74.05;98224.25;4424763;32;34021;-89
2024/01/17 09:33:15;;;;;;;;;;;;;;;-0.80;73.47;98224.66;4436743;32;33801;-93
2024/01/17 09:35:48;;;;;;;;;;;;;;;-0.74;72.83;98219.84;4424333;32;33607;-93
2024/01/17 09:38:27;;;;;;;;;;;;;;;-0.76;73.45;98220.56;4401034;32;34121;-90
2024/01/17 09:40:56;;;;;;;;;;;;;;;-0.56;72.47;98214.66;4410476;32;32526;-92
2024/01/17 09:43:25;;;;;;;;;;;;;;;-1.05;74.53;98204.97;4423514;32;33706;-92
2024/01/17 09:46:02;;;;;;;;;;;;;;;-1.16;74.76;98195.13;4398734;32;33691;-90
2024/01/17 09:48:29;;;;;;;;;;;;;;;-1.25;75.50;98193.03;4410840;32;32984;-93
2024/01/17 09:50:57;;;;;;;;;;;;;;;-1.30;75.92;98182.69;4398488;32;33506;-90
2024/01/17 09:53:28;;;;;;;;;;;;;;;-1.49;77.12;98170.84;4410955;32;34248;-91
2024/01/17 09:55:56;;;;;;;;;;;;;;;-1.66;77.97;98169.25;4410661;32;33494;-93
2024/01/17 09:58:44;;;;;;;;;;;;;;;-1.28;77.15;98152.25;4412509;32;33745;-92
2024/01/17 10:01:14;;;;;;;;;;;;;;;-1.63;78.12;98146.53;4398391;32;32177;-92
2024/01/17 10:03:43;;;;;;;;;;;;;;;-1.40;77.86;98154.25;4410119;32;33568;-92
2024/01/17 10:06:18;;;;;;;;;;;;;;;-1.55;77.75;98149.41;4411954;32;33271;-93
2024/01/17 10:08:47;;;;;;;;;;;;;;;-1.26;77.73;98140.47;4423629;32;34828;-90
2024/01/17 10:11:14;;;;;;;;;;;;;;;-1.39;78.02;98145.84;4410013;32;33223;-92
2024/01/17 10:14:03;;;;;;;;;;;;;;;-1.52;78.95;98139.34;4425856;32;34293;-90
2024/01/17 10:16:34;;;;;;;;;;;;;;;-1.03;77.26;98124.47;4398389;32;33580;-92
2024/01/17 10:19:43;;;;;;;;;;;;;;;-1.02;77.76;98118.63;4427998;32;34337;-91
2024/01/17 10:22:11;;;;;;;;;;;;;;;-1.06;78.51;98104.03;4410676;32;33399;-91
2024/01/17 10:24:39;;;;;;;;;;;;;;;-0.95;78.95;98098.50;4410324;32;32305;-92
2024/01/17 10:27:06;;;;;;;;;;;;;;;-0.67;78.33;98095.41;4410302;32;33160;-91
2024/01/17 10:29:36;;;;;;;;;;;;;;;-0.99;78.57;98088.19;4410609;32;33084;-94
2024/01/17 10:32:04;;;;;;;;;;;;;;;-0.78;79.03;98082.25;4410704;32;33453;-92
2024/01/17 10:34:32;;;;;;;;;;;;;;;-0.20;77.60;98083.59;4410542;32;33802;-93
2024/01/17 10:37:11;;;;;;;;;;;;;;;-0.02;75.96;98074.97;4411583;32;33441;-93
2024/01/17 10:40:11;;;;;;;;;;;;;;;0.38;75.39;98084.06;4400965;32;33197;-93
2024/01/17 10:42:43;;;;;;;;;;;;;;;0.01;76.81;98069.12;4411259;32;32128;-94
2024/01/17 10:45:20;;;;;;;;;;;;;;;-0.04;77.09;98068.06;4422998;32;33795;-91
2024/01/17 10:47:48;;;;;;;;;;;;;;;0.58;75.40;98066.03;4423592;32;34095;-90
2024/01/17 10:50:16;;;;;;;;;;;;;;;0.28;76.07;98048.84;4410407;32;33550;-92
2024/01/17 10:52:44;;;;;;;;;;;;;;;0.31;76.06;98037.91;4423169;32;33230;-94
2024/01/17 10:55:29;;;;;;;;;;;;;;;0.02;76.79;98030.09;4425120;32;32585;-93
2024/01/17 10:57:57;;;;;;;;;;;;;;;0.69;74.86;98027.31;4423098;32;33855;-93
2024/01/17 11:00:31;;;;;;;;;;;;;;;0.22;76.58;98023.12;4423185;32;34127;-94
2024/01/17 11:03:36;;;;;;;;;;;;;;;0.84;74.80;98011.66;4428557;32;34925;-92
2024/01/17 11:06:23;;;;;;;;;;;;;;;0.59;75.63;98001.44;4399829;32;33067;-92
2024/01/17 11:09:14;;;;;;;;;;;;;;;0.97;74.24;97985.69;4425546;32;35078;-93
2024/01/17 11:11:42;;;;;;;;;;;;;;;0.32;74.65;97986.97;4410408;32;33587;-91
2024/01/17 11:14:33;;;;;;;;;;;;;;;0.31;75.11;97992.88;4412626;32;32570;-94
2024/01/17 11:17:03;;;;;;;;;;;;;;;0.26;75.81;97958.69;4423024;32;32975;-91
2024/01/17 11:19:39;;;;;;;;;;;;;;;0.29;75.71;97963.03;4411465;32;34178;-93
2024/01/17 11:22:27;;;;;;;;;;;;;;;0.36;74.90;97967.53;4425445;32;33845;-93
2024/01/17 11:24:55;;;;;;;;;;;;;;;1.09;73.19;97956.25;4410090;32;32357;-92
2024/01/17 11:27:45;;;;;;;;;;;;;;;0.73;73.89;97961.97;4423099;32;32805;-94
2024/01/17 11:30:53;;;;;;;;;;;;;;;0.75;74.19;97959.44;4412346;32;34010;-93
2024/01/17 11:33:40;;;;;;;;;;;;;;;0.45;75.22;97935.53;4422730;32;33324;-93
2024/01/17 11:36:08;;;;;;;;;;;;;;;0.63;74.58;97927.63;4423350;32;32711;-94
2024/01/17 11:38:35;;;;;;;;;;;;;;;0.70;74.53;97928.69;4409720;32;33622;-91
2024/01/17 11:41:07;;;;;;;;;;;;;;;0.67;75.07;97932.00;4423111;32;35139;-93
2024/01/17 11:43:36;;;;;;;;;;;;;;;0.69;74.83;97920.19;4410336;32;33541;-94
2024/01/17 11:46:05;;;;;;;;;;;;;;;0.85;74.12;97913.88;4409991;32;32426;-91
2024/01/17 11:48:53;;;;;;;;;;;;;;;1.16;73.39;97910.53;4412155;32;33936;-93
2024/01/17 11:51:21;;;;;;;;;;;;;;;0.60;74.90;97908.81;4409852;32;33852;-91
2024/01/17 11:53:50;;;;;;;;;;;;;;;0.59;74.90;97899.44;4409929;32;34309;-93
2024/01/17 11:56:22;;;;;;;;;;;;;;;0.55;75.07;97902.72;4422874;32;34105;-94
2024/01/17 11:58:50;;;;;;;;;;;;;;;0.67;74.65;97888.66;4409910;32;33825;-94
2024/01/17 12:01:39;;;;;;;;;;;;;;;0.13;76.92;97898.81;4425400;32;34050;-93
2024/01/17 12:04:11;;;;;;;;;;;;;;;0.56;75.52;97890.00;4397262;32;33270;-90
2024/01/17 12:06:58;;;;;;;;;;;;;;;0.64;75.42;97872.38;4435215;32;33653;-92
2024/01/17 12:09:48;;;;;;;;;;;;;;;0.58;75.54;97865.41;4411999;32;33133;-93
2024/01/17 12:12:20;;;;;;;;;;;;;;;0.17;77.53;97869.22;4397015;32;34009;-93
2024/01/17 12:15:10;;;;;;;;;;;;;;;0.51;76.55;97854.97;4411971;32;34488;-94
2024/01/17 12:17:39;;;;;;;;;;;;;;;0.27;76.83;97853.41;4410245;32;32339;-93
2024/01/17 12:20:28;;;;;;;;;;;;;;;0.53;76.29;97849.13;4422252;32;32665;-94
2024/01/17 12:22:55;;;;;;;;;;;;;;;0.45;76.37;97843.75;4409499;32;33686;-92
2024/01/17 12:25:23;;;;;;;;;;;;;;;0.46;76.53;97844.66;4422570;32;33767;-94
2024/01/17 12:28:16;;;;;;;;;;;;;;;0.51;76.68;97832.03;4411666;32;32463;-92
2024/01/17 12:31:07;;;;;;;;;;;;;;;0.31;77.20;97814.44;4411686;32;32888;-92
2024/01/17 12:33:36;;;;;;;;;;;;;;;0.15;78.19;97812.22;4409076;32;33079;-94
2024/01/17 12:36:24;;;;;;;;;;;;;;;0.22;78.32;97811.59;4411453;32;33686;-93
2024/01/17 12:39:14;;;;;;;;;;;;;;;0.71;77.17;97805.44;4401580;32;32390;-94
2024/01/17 12:42:01;;;;;;;;;;;;;;;0.66;76.72;97809.53;4411382;32;33179;-91
2024/01/17 12:44:49;;;;;;;;;;;;;;;0.69;76.34;97794.34;4424291;32;34391;-94
2024/01/17 12:47:17;;;;;;;;;;;;;;;0.71;76.26;97790.13;4421904;32;35058;-93
2024/01/17 12:49:47;;;;;;;;;;;;;;;0.70;76.07;97779.06;4409087;32;32556;-94
2024/01/17 12:52:35;;;;;;;;;;;;;;;0.70;76.32;97780.75;4411791;32;34087;-94
2024/01/17 12:55:04;;;;;;;;;;;;;;;0.82;76.06;97782.78;4409457;32;33665;-90
2024/01/17 12:58:11;;;;;;;;;;;;;;;0.64;76.17;97783.97;4412884;32;33641;-93
2024/01/17 13:00:47;;;;;;;;;;;;;;;0.46;76.96;97789.41;4419846;32;33592;-94
2024/01/17 13:03:27;;;;;;;;;;;;;;;0.52;76.77;97785.31;4436820;32;34872;-91
2024/01/17 13:05:59;;;;;;;;;;;;;;;0.36;77.40;97782.31;4410977;32;33384;-94
2024/01/17 13:08:32;;;;;;;;;;;;;;;0.62;76.59;97787.31;4399150;32;34099;-93
2024/01/17 13:11:16;;;;;;;;;;;;;;;0.66;76.64;97766.19;4412351;32;33272;-93
2024/01/17 13:14:24;;;;;;;;;;;;;;;0.63;76.39;97758.44;4415075;32;33966;-93
2024/01/17 13:17:12;;;;;;;;;;;;;;;0.90;75.19;97769.44;4412137;32;33211;-92
2024/01/17 13:19:41;;;;;;;;;;;;;;;0.71;76.11;97767.19;4398113;32;33128;-93